sensor_id;sensor_type;location;lat;lon;timestamp;P1;durP1;ratioP1;P2;durP2;ratioP2
66979;SDS011;54048;51.468;-2.572;2022-12-18T00:01:28;25.33;;;14.15;;
66979;SDS011;54048;51.468;-2.572;2022-12-18T00:03:58;27.77;;;14.93;;
66979;SDS011;54048;51.468;-2.572;2022-12-18T00:06:25;26.95;;;13.82;;
66979;SDS011;54048;51.468;-2.572;2022-12-18T00:08:52;28.15;;;11.23;;
66979;SDS011;54048;51.468;-2.572;2022-12-18T00:11:19;18.15;;;10.40;;
66979;SDS011;54048;51.468;-2.572;2022-12-18T00:13:45;18.13;;;10.32;;
66979;SDS011;54048;51.468;-2.572;2022-12-18T00:16:13;26.83;;;11.45;;
66979;SDS011;54048;51.468;-2.572;2022-12-18T00:18:45;17.85;;;10.52;;
66979;SDS011;54048;51.468;-2.572;2022-12-18T00:21:11;23.63;;;11.88;;
66979;SDS011;54048;51.468;-2.572;2022-12-18T00:23:38;22.08;;;11.55;;
66979;SDS011;54048;51.468;-2.572;2022-12-18T00:26:06;27.27;;;15.05;;
66979;SDS011;54048;51.468;-2.572;2022-12-18T00:28:54;39.00;;;17.80;;
66979;SDS011;54048;51.468;-2.572;2022-12-18T00:31:21;32.45;;;16.35;;
66979;SDS011;54048;51.468;-2.572;2022-12-18T00:33:48;31.45;;;15.63;;
66979;SDS011;54048;51.468;-2.572;2022-12-18T00:36:14;39.40;;;16.90;;
66979;SDS011;54048;51.468;-2.572;2022-12-18T00:38:42;31.23;;;15.32;;
66979;SDS011;54048;51.468;-2.572;2022-12-18T00:41:08;28.00;;;14.30;;
66979;SDS011;54048;51.468;-2.572;2022-12-18T00:43:36;27.10;;;11.95;;
66979;SDS011;54048;51.468;-2.572;2022-12-18T00:46:02;35.95;;;12.20;;
66979;SDS011;54048;51.468;-2.572;2022-12-18T00:48:27;20.80;;;11.57;;
66979;SDS011;54048;51.468;-2.572;2022-12-18T00:50:53;23.45;;;11.00;;
66979;SDS011;54048;51.468;-2.572;2022-12-18T00:53:19;28.75;;;13.30;;
66979;SDS011;54048;51.468;-2.572;2022-12-18T00:55:44;37.15;;;16.90;;
66979;SDS011;54048;51.468;-2.572;2022-12-18T00:58:10;53.53;;;21.95;;
66979;SDS011;54048;51.468;-2.572;2022-12-18T01:00:37;57.65;;;24.10;;
66979;SDS011;54048;51.468;-2.572;2022-12-18T01:03:03;59.38;;;23.05;;
66979;SDS011;54048;51.468;-2.572;2022-12-18T01:05:30;56.92;;;23.08;;
66979;SDS011;54048;51.468;-2.572;2022-12-18T01:07:56;44.80;;;20.48;;
66979;SDS011;54048;51.468;-2.572;2022-12-18T01:10:23;51.80;;;21.13;;
66979;SDS011;54048;51.468;-2.572;2022-12-18T01:12:49;46.35;;;20.60;;
66979;SDS011;54048;51.468;-2.572;2022-12-18T01:15:15;50.13;;;20.27;;
66979;SDS011;54048;51.468;-2.572;2022-12-18T01:17:41;43.95;;;19.75;;
66979;SDS011;54048;51.468;-2.572;2022-12-18T01:20:07;35.15;;;17.65;;
66979;SDS011;54048;51.468;-2.572;2022-12-18T01:22:34;41.20;;;18.67;;
66979;SDS011;54048;51.468;-2.572;2022-12-18T01:25:00;39.78;;;18.10;;
66979;SDS011;54048;51.468;-2.572;2022-12-18T01:27:26;35.78;;;16.50;;
66979;SDS011;54048;51.468;-2.572;2022-12-18T01:29:51;39.65;;;17.75;;
66979;SDS011;54048;51.468;-2.572;2022-12-18T01:32:16;34.63;;;16.15;;
66979;SDS011;54048;51.468;-2.572;2022-12-18T01:34:42;41.30;;;17.15;;
66979;SDS011;54048;51.468;-2.572;2022-12-18T01:37:07;33.95;;;16.05;;
66979;SDS011;54048;51.468;-2.572;2022-12-18T01:39:33;41.05;;;16.70;;
66979;SDS011;54048;51.468;-2.572;2022-12-18T01:42:02;31.58;;;15.38;;
66979;SDS011;54048;51.468;-2.572;2022-12-18T01:47:27;29.02;;;15.32;;
66979;SDS011;54048;51.468;-2.572;2022-12-18T01:50:00;30.05;;;14.25;;
66979;SDS011;54048;51.468;-2.572;2022-12-18T01:52:31;31.63;;;14.68;;
66979;SDS011;54048;51.468;-2.572;2022-12-18T01:54:58;41.30;;;16.92;;
66979;SDS011;54048;51.468;-2.572;2022-12-18T01:57:24;55.50;;;22.23;;
66979;SDS011;54048;51.468;-2.572;2022-12-18T01:59:51;49.90;;;20.58;;
66979;SDS011;54048;51.468;-2.572;2022-12-18T02:02:18;32.53;;;15.73;;
66979;SDS011;54048;51.468;-2.572;2022-12-18T02:04:44;26.92;;;11.85;;
66979;SDS011;54048;51.468;-2.572;2022-12-18T02:10:17;21.05;;;9.27;;
66979;SDS011;54048;51.468;-2.572;2022-12-18T02:12:57;16.90;;;9.48;;
66979;SDS011;54048;51.468;-2.572;2022-12-18T02:15:32;19.08;;;9.45;;
66979;SDS011;54048;51.468;-2.572;2022-12-18T02:18:11;14.90;;;9.02;;
66979;SDS011;54048;51.468;-2.572;2022-12-18T02:21:00;24.40;;;11.05;;
66979;SDS011;54048;51.468;-2.572;2022-12-18T02:23:49;18.48;;;10.77;;
66979;SDS011;54048;51.468;-2.572;2022-12-18T02:26:48;27.17;;;11.17;;
66979;SDS011;54048;51.468;-2.572;2022-12-18T02:29:22;18.52;;;9.63;;
66979;SDS011;54048;51.468;-2.572;2022-12-18T02:31:52;24.23;;;9.82;;
66979;SDS011;54048;51.468;-2.572;2022-12-18T02:34:20;21.45;;;10.45;;
66979;SDS011;54048;51.468;-2.572;2022-12-18T02:36:48;22.42;;;10.80;;
66979;SDS011;54048;51.468;-2.572;2022-12-18T02:39:14;15.55;;;9.25;;
66979;SDS011;54048;51.468;-2.572;2022-12-18T02:41:41;20.15;;;9.90;;
66979;SDS011;54048;51.468;-2.572;2022-12-18T02:44:07;16.95;;;9.20;;
66979;SDS011;54048;51.468;-2.572;2022-12-18T02:46:35;20.45;;;10.60;;
66979;SDS011;54048;51.468;-2.572;2022-12-18T02:52:01;16.58;;;8.80;;
66979;SDS011;54048;51.468;-2.572;2022-12-18T02:57:04;14.80;;;8.35;;
66979;SDS011;54048;51.468;-2.572;2022-12-18T02:59:38;13.43;;;7.25;;
66979;SDS011;54048;51.468;-2.572;2022-12-18T03:02:19;12.55;;;6.68;;
66979;SDS011;54048;51.468;-2.572;2022-12-18T03:04:55;12.40;;;6.35;;
66979;SDS011;54048;51.468;-2.572;2022-12-18T03:07:33;11.45;;;6.95;;
66979;SDS011;54048;51.468;-2.572;2022-12-18T03:10:01;8.65;;;5.88;;
66979;SDS011;54048;51.468;-2.572;2022-12-18T03:12:31;15.23;;;6.97;;
66979;SDS011;54048;51.468;-2.572;2022-12-18T03:15:04;12.30;;;6.88;;
66979;SDS011;54048;51.468;-2.572;2022-12-18T03:17:33;11.15;;;5.90;;
66979;SDS011;54048;51.468;-2.572;2022-12-18T03:20:14;13.88;;;6.82;;
66979;SDS011;54048;51.468;-2.572;2022-12-18T03:22:43;10.18;;;6.63;;
66979;SDS011;54048;51.468;-2.572;2022-12-18T03:25:11;15.40;;;6.95;;
66979;SDS011;54048;51.468;-2.572;2022-12-18T03:27:40;16.65;;;7.28;;
66979;SDS011;54048;51.468;-2.572;2022-12-18T03:30:12;12.40;;;7.05;;
66979;SDS011;54048;51.468;-2.572;2022-12-18T03:32:39;18.42;;;7.65;;
66979;SDS011;54048;51.468;-2.572;2022-12-18T03:35:09;15.15;;;6.88;;
66979;SDS011;54048;51.468;-2.572;2022-12-18T03:37:37;11.05;;;5.72;;
66979;SDS011;54048;51.468;-2.572;2022-12-18T03:40:03;14.68;;;6.28;;
66979;SDS011;54048;51.468;-2.572;2022-12-18T03:42:31;13.40;;;6.93;;
66979;SDS011;54048;51.468;-2.572;2022-12-18T03:47:41;11.35;;;6.35;;
66979;SDS011;54048;51.468;-2.572;2022-12-18T03:55:14;15.00;;;6.75;;
66979;SDS011;54048;51.468;-2.572;2022-12-18T03:57:40;10.13;;;5.25;;
66979;SDS011;54048;51.468;-2.572;2022-12-18T04:00:11;11.13;;;5.75;;
66979;SDS011;54048;51.468;-2.572;2022-12-18T04:02:41;13.13;;;5.68;;
66979;SDS011;54048;51.468;-2.572;2022-12-18T04:05:08;16.70;;;6.32;;
66979;SDS011;54048;51.468;-2.572;2022-12-18T04:07:37;14.35;;;5.63;;
66979;SDS011;54048;51.468;-2.572;2022-12-18T04:10:03;15.55;;;6.00;;
66979;SDS011;54048;51.468;-2.572;2022-12-18T04:12:31;12.10;;;6.05;;
66979;SDS011;54048;51.468;-2.572;2022-12-18T04:14:57;12.00;;;6.53;;
66979;SDS011;54048;51.468;-2.572;2022-12-18T04:17:22;10.45;;;6.22;;
66979;SDS011;54048;51.468;-2.572;2022-12-18T04:20:02;11.55;;;6.38;;
66979;SDS011;54048;51.468;-2.572;2022-12-18T04:22:38;13.90;;;6.85;;
66979;SDS011;54048;51.468;-2.572;2022-12-18T04:25:03;13.85;;;6.50;;
66979;SDS011;54048;51.468;-2.572;2022-12-18T04:27:30;12.95;;;5.57;;
66979;SDS011;54048;51.468;-2.572;2022-12-18T04:29:56;16.45;;;8.43;;
66979;SDS011;54048;51.468;-2.572;2022-12-18T04:32:39;13.63;;;7.10;;
66979;SDS011;54048;51.468;-2.572;2022-12-18T04:37:53;13.23;;;6.82;;
66979;SDS011;54048;51.468;-2.572;2022-12-18T04:40:20;14.30;;;7.93;;
66979;SDS011;54048;51.468;-2.572;2022-12-18T04:42:46;16.90;;;7.55;;
66979;SDS011;54048;51.468;-2.572;2022-12-18T04:45:11;11.98;;;7.60;;
66979;SDS011;54048;51.468;-2.572;2022-12-18T04:47:38;14.18;;;7.78;;
66979;SDS011;54048;51.468;-2.572;2022-12-18T04:50:04;11.07;;;5.95;;
66979;SDS011;54048;51.468;-2.572;2022-12-18T04:52:31;15.85;;;7.88;;
66979;SDS011;54048;51.468;-2.572;2022-12-18T04:55:04;12.48;;;7.30;;
66979;SDS011;54048;51.468;-2.572;2022-12-18T04:57:29;19.08;;;7.97;;
66979;SDS011;54048;51.468;-2.572;2022-12-18T04:59:55;12.65;;;7.82;;
66979;SDS011;54048;51.468;-2.572;2022-12-18T05:07:39;8.38;;;4.35;;
66979;SDS011;54048;51.468;-2.572;2022-12-18T05:10:14;18.08;;;7.45;;
66979;SDS011;54048;51.468;-2.572;2022-12-18T05:12:40;12.32;;;7.65;;
66979;SDS011;54048;51.468;-2.572;2022-12-18T05:17:48;17.45;;;8.05;;
66979;SDS011;54048;51.468;-2.572;2022-12-18T05:23:01;16.15;;;8.18;;
66979;SDS011;54048;51.468;-2.572;2022-12-18T05:25:26;18.45;;;7.70;;
66979;SDS011;54048;51.468;-2.572;2022-12-18T05:28:07;15.27;;;7.85;;
66979;SDS011;54048;51.468;-2.572;2022-12-18T05:30:37;13.10;;;6.88;;
66979;SDS011;54048;51.468;-2.572;2022-12-18T05:33:06;17.85;;;8.52;;
66979;SDS011;54048;51.468;-2.572;2022-12-18T05:35:34;9.40;;;5.03;;
66979;SDS011;54048;51.468;-2.572;2022-12-18T05:38:07;15.50;;;7.70;;
66979;SDS011;54048;51.468;-2.572;2022-12-18T05:40:34;18.02;;;8.57;;
66979;SDS011;54048;51.468;-2.572;2022-12-18T05:43:00;12.82;;;6.97;;
66979;SDS011;54048;51.468;-2.572;2022-12-18T05:45:25;18.15;;;8.88;;
66979;SDS011;54048;51.468;-2.572;2022-12-18T05:47:51;18.27;;;8.93;;
66979;SDS011;54048;51.468;-2.572;2022-12-18T05:50:16;20.70;;;8.88;;
66979;SDS011;54048;51.468;-2.572;2022-12-18T05:52:41;21.50;;;8.80;;
66979;SDS011;54048;51.468;-2.572;2022-12-18T05:55:07;17.73;;;8.02;;
66979;SDS011;54048;51.468;-2.572;2022-12-18T05:57:33;12.77;;;6.40;;
66979;SDS011;54048;51.468;-2.572;2022-12-18T05:59:58;21.63;;;8.50;;
66979;SDS011;54048;51.468;-2.572;2022-12-18T06:02:23;15.60;;;8.18;;
66979;SDS011;54048;51.468;-2.572;2022-12-18T06:04:49;16.50;;;7.60;;
66979;SDS011;54048;51.468;-2.572;2022-12-18T06:07:22;17.67;;;8.45;;
66979;SDS011;54048;51.468;-2.572;2022-12-18T06:09:48;18.33;;;8.93;;
66979;SDS011;54048;51.468;-2.572;2022-12-18T06:12:13;17.67;;;8.45;;
66979;SDS011;54048;51.468;-2.572;2022-12-18T06:14:38;21.98;;;9.43;;
66979;SDS011;54048;51.468;-2.572;2022-12-18T06:17:10;19.73;;;9.75;;
66979;SDS011;54048;51.468;-2.572;2022-12-18T06:19:36;16.98;;;8.27;;
66979;SDS011;54048;51.468;-2.572;2022-12-18T06:22:01;21.77;;;10.15;;
66979;SDS011;54048;51.468;-2.572;2022-12-18T06:24:27;18.17;;;9.30;;
66979;SDS011;54048;51.468;-2.572;2022-12-18T06:26:52;17.77;;;9.77;;
66979;SDS011;54048;51.468;-2.572;2022-12-18T06:29:18;19.63;;;8.98;;
66979;SDS011;54048;51.468;-2.572;2022-12-18T06:31:43;16.80;;;8.57;;
66979;SDS011;54048;51.468;-2.572;2022-12-18T06:34:08;17.75;;;9.38;;
66979;SDS011;54048;51.468;-2.572;2022-12-18T06:39:02;12.05;;;6.78;;
66979;SDS011;54048;51.468;-2.572;2022-12-18T06:41:28;19.02;;;9.90;;
66979;SDS011;54048;51.468;-2.572;2022-12-18T06:43:54;22.00;;;8.68;;
66979;SDS011;54048;51.468;-2.572;2022-12-18T06:46:20;17.00;;;9.25;;
66979;SDS011;54048;51.468;-2.572;2022-12-18T06:48:51;21.45;;;9.40;;
66979;SDS011;54048;51.468;-2.572;2022-12-18T06:51:17;18.45;;;10.02;;
66979;SDS011;54048;51.468;-2.572;2022-12-18T06:53:44;19.27;;;9.35;;
66979;SDS011;54048;51.468;-2.572;2022-12-18T06:56:10;19.05;;;9.75;;
66979;SDS011;54048;51.468;-2.572;2022-12-18T06:58:36;17.33;;;8.80;;
66979;SDS011;54048;51.468;-2.572;2022-12-18T07:01:02;18.70;;;9.00;;
66979;SDS011;54048;51.468;-2.572;2022-12-18T07:03:29;22.33;;;9.70;;
66979;SDS011;54048;51.468;-2.572;2022-12-18T07:05:54;16.70;;;8.88;;
66979;SDS011;54048;51.468;-2.572;2022-12-18T07:08:20;15.75;;;8.23;;
66979;SDS011;54048;51.468;-2.572;2022-12-18T07:10:46;19.17;;;9.13;;
66979;SDS011;54048;51.468;-2.572;2022-12-18T07:13:11;19.10;;;9.10;;
66979;SDS011;54048;51.468;-2.572;2022-12-18T07:15:38;22.65;;;10.15;;
66979;SDS011;54048;51.468;-2.572;2022-12-18T07:18:03;20.65;;;9.68;;
66979;SDS011;54048;51.468;-2.572;2022-12-18T07:20:29;19.35;;;10.00;;
66979;SDS011;54048;51.468;-2.572;2022-12-18T07:22:54;20.90;;;8.75;;
66979;SDS011;54048;51.468;-2.572;2022-12-18T07:25:19;20.50;;;9.60;;
66979;SDS011;54048;51.468;-2.572;2022-12-18T07:27:45;19.23;;;10.13;;
66979;SDS011;54048;51.468;-2.572;2022-12-18T07:30:12;18.27;;;10.07;;
66979;SDS011;54048;51.468;-2.572;2022-12-18T07:32:38;16.88;;;8.75;;
66979;SDS011;54048;51.468;-2.572;2022-12-18T07:35:04;19.85;;;9.07;;
66979;SDS011;54048;51.468;-2.572;2022-12-18T07:37:29;17.50;;;9.57;;
66979;SDS011;54048;51.468;-2.572;2022-12-18T07:39:56;19.42;;;9.35;;
66979;SDS011;54048;51.468;-2.572;2022-12-18T07:42:21;24.27;;;9.00;;
66979;SDS011;54048;51.468;-2.572;2022-12-18T07:45:00;17.38;;;9.30;;
66979;SDS011;54048;51.468;-2.572;2022-12-18T07:47:26;20.20;;;9.75;;
66979;SDS011;54048;51.468;-2.572;2022-12-18T07:49:52;19.95;;;9.80;;
66979;SDS011;54048;51.468;-2.572;2022-12-18T07:52:23;21.83;;;10.73;;
66979;SDS011;54048;51.468;-2.572;2022-12-18T07:54:53;20.65;;;9.23;;
66979;SDS011;54048;51.468;-2.572;2022-12-18T07:57:18;16.45;;;7.43;;
66979;SDS011;54048;51.468;-2.572;2022-12-18T07:59:46;18.60;;;8.73;;
66979;SDS011;54048;51.468;-2.572;2022-12-18T08:02:11;12.43;;;7.00;;
66979;SDS011;54048;51.468;-2.572;2022-12-18T08:04:36;17.25;;;8.50;;
66979;SDS011;54048;51.468;-2.572;2022-12-18T08:07:07;24.27;;;9.57;;
66979;SDS011;54048;51.468;-2.572;2022-12-18T08:09:41;17.95;;;9.57;;
66979;SDS011;54048;51.468;-2.572;2022-12-18T08:12:06;23.33;;;10.13;;
66979;SDS011;54048;51.468;-2.572;2022-12-18T08:14:41;22.63;;;9.45;;
66979;SDS011;54048;51.468;-2.572;2022-12-18T08:17:19;24.13;;;10.05;;
66979;SDS011;54048;51.468;-2.572;2022-12-18T08:19:45;18.67;;;9.13;;
66979;SDS011;54048;51.468;-2.572;2022-12-18T08:22:10;15.30;;;7.63;;
66979;SDS011;54048;51.468;-2.572;2022-12-18T08:24:35;15.00;;;8.63;;
66979;SDS011;54048;51.468;-2.572;2022-12-18T08:27:10;15.85;;;8.60;;
66979;SDS011;54048;51.468;-2.572;2022-12-18T08:29:40;33.25;;;10.13;;
66979;SDS011;54048;51.468;-2.572;2022-12-18T08:32:06;15.70;;;9.20;;
66979;SDS011;54048;51.468;-2.572;2022-12-18T08:37:27;17.42;;;9.68;;
66979;SDS011;54048;51.468;-2.572;2022-12-18T08:39:53;14.75;;;7.03;;
66979;SDS011;54048;51.468;-2.572;2022-12-18T08:42:18;23.08;;;8.43;;
66979;SDS011;54048;51.468;-2.572;2022-12-18T08:45:02;23.60;;;9.93;;
66979;SDS011;54048;51.468;-2.572;2022-12-18T08:47:29;21.13;;;9.45;;
66979;SDS011;54048;51.468;-2.572;2022-12-18T08:50:04;23.27;;;9.88;;
66979;SDS011;54048;51.468;-2.572;2022-12-18T08:52:31;19.65;;;9.38;;
66979;SDS011;54048;51.468;-2.572;2022-12-18T08:54:57;17.80;;;8.43;;
66979;SDS011;54048;51.468;-2.572;2022-12-18T08:57:22;18.80;;;8.95;;
66979;SDS011;54048;51.468;-2.572;2022-12-18T08:59:48;21.77;;;9.75;;
66979;SDS011;54048;51.468;-2.572;2022-12-18T09:02:13;18.25;;;10.25;;
66979;SDS011;54048;51.468;-2.572;2022-12-18T09:04:39;17.40;;;8.57;;
66979;SDS011;54048;51.468;-2.572;2022-12-18T09:09:34;25.60;;;8.40;;
66979;SDS011;54048;51.468;-2.572;2022-12-18T09:12:03;14.55;;;7.22;;
66979;SDS011;54048;51.468;-2.572;2022-12-18T09:14:29;20.42;;;9.05;;
66979;SDS011;54048;51.468;-2.572;2022-12-18T09:16:55;18.30;;;8.77;;
66979;SDS011;54048;51.468;-2.572;2022-12-18T09:19:21;17.27;;;8.55;;
66979;SDS011;54048;51.468;-2.572;2022-12-18T09:21:46;17.35;;;8.57;;
66979;SDS011;54048;51.468;-2.572;2022-12-18T09:24:23;14.77;;;8.27;;
66979;SDS011;54048;51.468;-2.572;2022-12-18T09:26:52;12.98;;;7.30;;
66979;SDS011;54048;51.468;-2.572;2022-12-18T09:29:20;7.55;;;4.90;;
66979;SDS011;54048;51.468;-2.572;2022-12-18T09:34:15;12.60;;;6.30;;
66979;SDS011;54048;51.468;-2.572;2022-12-18T09:36:41;17.73;;;8.25;;
66979;SDS011;54048;51.468;-2.572;2022-12-18T09:39:08;17.98;;;7.18;;
66979;SDS011;54048;51.468;-2.572;2022-12-18T09:41:53;19.52;;;9.15;;
66979;SDS011;54048;51.468;-2.572;2022-12-18T09:49:43;19.25;;;9.05;;
66979;SDS011;54048;51.468;-2.572;2022-12-18T09:52:15;19.23;;;8.85;;
66979;SDS011;54048;51.468;-2.572;2022-12-18T09:57:53;20.88;;;8.50;;
66979;SDS011;54048;51.468;-2.572;2022-12-18T10:00:23;18.52;;;7.97;;
66979;SDS011;54048;51.468;-2.572;2022-12-18T10:02:53;16.05;;;9.20;;
66979;SDS011;54048;51.468;-2.572;2022-12-18T10:17:02;11.70;;;6.63;;
66979;SDS011;54048;51.468;-2.572;2022-12-18T10:27:53;18.10;;;8.88;;
66979;SDS011;54048;51.468;-2.572;2022-12-18T10:30:22;14.48;;;8.85;;
66979;SDS011;54048;51.468;-2.572;2022-12-18T10:32:48;22.00;;;11.32;;
66979;SDS011;54048;51.468;-2.572;2022-12-18T10:35:16;24.75;;;10.13;;
66979;SDS011;54048;51.468;-2.572;2022-12-18T10:38:01;14.02;;;7.65;;
66979;SDS011;54048;51.468;-2.572;2022-12-18T10:40:29;17.25;;;8.77;;
66979;SDS011;54048;51.468;-2.572;2022-12-18T10:43:04;17.55;;;9.50;;
66979;SDS011;54048;51.468;-2.572;2022-12-18T10:45:37;24.60;;;9.63;;
66979;SDS011;54048;51.468;-2.572;2022-12-18T10:48:04;25.10;;;11.70;;
66979;SDS011;54048;51.468;-2.572;2022-12-18T10:50:31;26.60;;;11.35;;
66979;SDS011;54048;51.468;-2.572;2022-12-18T10:52:58;23.80;;;10.30;;
66979;SDS011;54048;51.468;-2.572;2022-12-18T10:55:32;24.33;;;10.40;;
66979;SDS011;54048;51.468;-2.572;2022-12-18T10:58:13;15.25;;;8.57;;
66979;SDS011;54048;51.468;-2.572;2022-12-18T11:00:45;21.83;;;9.73;;
66979;SDS011;54048;51.468;-2.572;2022-12-18T11:03:30;18.50;;;10.32;;
66979;SDS011;54048;51.468;-2.572;2022-12-18T11:06:08;18.33;;;9.68;;
66979;SDS011;54048;51.468;-2.572;2022-12-18T11:08:35;25.33;;;11.30;;
66979;SDS011;54048;51.468;-2.572;2022-12-18T11:11:01;25.77;;;12.40;;
66979;SDS011;54048;51.468;-2.572;2022-12-18T11:13:28;22.13;;;11.13;;
66979;SDS011;54048;51.468;-2.572;2022-12-18T11:15:55;25.38;;;11.23;;
66979;SDS011;54048;51.468;-2.572;2022-12-18T11:21:00;19.92;;;10.73;;
66979;SDS011;54048;51.468;-2.572;2022-12-18T11:26:03;23.67;;;11.25;;
66979;SDS011;54048;51.468;-2.572;2022-12-18T11:31:11;19.05;;;9.73;;
66979;SDS011;54048;51.468;-2.572;2022-12-18T11:33:43;22.15;;;12.40;;
66979;SDS011;54048;51.468;-2.572;2022-12-18T11:36:29;28.60;;;11.93;;
66979;SDS011;54048;51.468;-2.572;2022-12-18T11:38:59;25.63;;;12.40;;
66979;SDS011;54048;51.468;-2.572;2022-12-18T11:41:34;22.83;;;11.35;;
66979;SDS011;54048;51.468;-2.572;2022-12-18T11:44:27;17.67;;;9.02;;
66979;SDS011;54048;51.468;-2.572;2022-12-18T11:47:15;25.58;;;10.80;;
66979;SDS011;54048;51.468;-2.572;2022-12-18T11:49:45;25.02;;;10.52;;
66979;SDS011;54048;51.468;-2.572;2022-12-18T11:52:35;27.70;;;11.63;;
66979;SDS011;54048;51.468;-2.572;2022-12-18T11:55:13;19.88;;;10.77;;
66979;SDS011;54048;51.468;-2.572;2022-12-18T12:00:15;25.95;;;11.18;;
66979;SDS011;54048;51.468;-2.572;2022-12-18T12:15:51;24.15;;;11.05;;
66979;SDS011;54048;51.468;-2.572;2022-12-18T12:40:39;18.33;;;9.32;;
66979;SDS011;54048;51.468;-2.572;2022-12-18T12:43:54;17.20;;;8.70;;
66979;SDS011;54048;51.468;-2.572;2022-12-18T12:46:11;12.65;;;7.97;;
66979;SDS011;54048;51.468;-2.572;2022-12-18T12:51:08;12.85;;;8.25;;
66979;SDS011;54048;51.468;-2.572;2022-12-18T12:53:45;9.52;;;6.03;;
66979;SDS011;54048;51.468;-2.572;2022-12-18T12:56:11;13.95;;;7.20;;
66979;SDS011;54048;51.468;-2.572;2022-12-18T13:04:05;11.13;;;6.55;;
66979;SDS011;54048;51.468;-2.572;2022-12-18T13:09:20;10.13;;;6.35;;
66979;SDS011;54048;51.468;-2.572;2022-12-18T13:11:46;10.50;;;5.05;;
66979;SDS011;54048;51.468;-2.572;2022-12-18T13:14:37;14.85;;;7.03;;
66979;SDS011;54048;51.468;-2.572;2022-12-18T13:19:48;9.43;;;6.13;;
66979;SDS011;54048;51.468;-2.572;2022-12-18T13:22:33;7.68;;;5.15;;
66979;SDS011;54048;51.468;-2.572;2022-12-18T13:24:59;11.13;;;4.68;;
66979;SDS011;54048;51.468;-2.572;2022-12-18T13:27:47;9.30;;;4.63;;
66979;SDS011;54048;51.468;-2.572;2022-12-18T13:35:40;4.47;;;3.20;;
66979;SDS011;54048;51.468;-2.572;2022-12-18T13:38:23;7.25;;;4.35;;
66979;SDS011;54048;51.468;-2.572;2022-12-18T13:41:04;6.88;;;4.40;;
66979;SDS011;54048;51.468;-2.572;2022-12-18T13:48:24;3.53;;;2.58;;
66979;SDS011;54048;51.468;-2.572;2022-12-18T13:51:04;7.97;;;4.38;;
66979;SDS011;54048;51.468;-2.572;2022-12-18T13:53:51;5.15;;;3.17;;
66979;SDS011;54048;51.468;-2.572;2022-12-18T13:56:17;4.80;;;3.40;;
66979;SDS011;54048;51.468;-2.572;2022-12-18T13:58:46;5.00;;;3.42;;
66979;SDS011;54048;51.468;-2.572;2022-12-18T14:01:21;5.43;;;3.50;;
66979;SDS011;54048;51.468;-2.572;2022-12-18T14:03:48;4.28;;;3.17;;
66979;SDS011;54048;51.468;-2.572;2022-12-18T14:06:13;9.60;;;2.60;;
66979;SDS011;54048;51.468;-2.572;2022-12-18T14:08:39;5.43;;;2.80;;
66979;SDS011;54048;51.468;-2.572;2022-12-18T14:11:06;5.07;;;3.10;;
66979;SDS011;54048;51.468;-2.572;2022-12-18T14:13:36;4.55;;;3.08;;
66979;SDS011;54048;51.468;-2.572;2022-12-18T14:16:03;4.68;;;3.00;;
66979;SDS011;54048;51.468;-2.572;2022-12-18T14:19:03;6.22;;;3.30;;
66979;SDS011;54048;51.468;-2.572;2022-12-18T14:21:23;4.65;;;2.92;;
66979;SDS011;54048;51.468;-2.572;2022-12-18T14:26:53;8.43;;;3.83;;
66979;SDS011;54048;51.468;-2.572;2022-12-18T14:29:28;6.32;;;2.67;;
66979;SDS011;54048;51.468;-2.572;2022-12-18T14:34:30;2.97;;;1.33;;
66979;SDS011;54048;51.468;-2.572;2022-12-18T14:36:56;1.67;;;1.13;;
66979;SDS011;54048;51.468;-2.572;2022-12-18T14:39:21;1.45;;;1.33;;
66979;SDS011;54048;51.468;-2.572;2022-12-18T14:41:50;2.00;;;1.40;;
66979;SDS011;54048;51.468;-2.572;2022-12-18T14:44:15;2.53;;;1.58;;
66979;SDS011;54048;51.468;-2.572;2022-12-18T14:46:47;1.95;;;1.30;;
66979;SDS011;54048;51.468;-2.572;2022-12-18T14:49:19;1.75;;;1.63;;
66979;SDS011;54048;51.468;-2.572;2022-12-18T14:51:47;3.67;;;1.80;;
66979;SDS011;54048;51.468;-2.572;2022-12-18T14:54:17;2.33;;;1.83;;
66979;SDS011;54048;51.468;-2.572;2022-12-18T14:57:29;2.20;;;1.40;;
66979;SDS011;54048;51.468;-2.572;2022-12-18T14:59:41;2.90;;;1.50;;
66979;SDS011;54048;51.468;-2.572;2022-12-18T15:05:05;3.92;;;1.50;;
66979;SDS011;54048;51.468;-2.572;2022-12-18T15:07:45;1.15;;;0.95;;
66979;SDS011;54048;51.468;-2.572;2022-12-18T15:10:16;1.40;;;1.15;;
66979;SDS011;54048;51.468;-2.572;2022-12-18T15:12:48;2.78;;;1.20;;
66979;SDS011;54048;51.468;-2.572;2022-12-18T15:20:52;1.63;;;1.40;;
66979;SDS011;54048;51.468;-2.572;2022-12-18T15:26:04;5.18;;;1.40;;
66979;SDS011;54048;51.468;-2.572;2022-12-18T15:28:43;1.35;;;1.02;;
66979;SDS011;54048;51.468;-2.572;2022-12-18T15:33:42;1.50;;;1.40;;
66979;SDS011;54048;51.468;-2.572;2022-12-18T15:36:12;2.47;;;1.55;;
66979;SDS011;54048;51.468;-2.572;2022-12-18T15:38:38;3.22;;;1.58;;
66979;SDS011;54048;51.468;-2.572;2022-12-18T15:41:04;1.25;;;1.13;;
66979;SDS011;54048;51.468;-2.572;2022-12-18T15:43:32;1.63;;;1.52;;
66979;SDS011;54048;51.468;-2.572;2022-12-18T15:46:06;4.47;;;2.17;;
66979;SDS011;54048;51.468;-2.572;2022-12-18T15:48:34;1.40;;;1.30;;
66979;SDS011;54048;51.468;-2.572;2022-12-18T15:51:02;3.47;;;1.60;;
66979;SDS011;54048;51.468;-2.572;2022-12-18T15:53:30;2.63;;;1.35;;
66979;SDS011;54048;51.468;-2.572;2022-12-18T15:55:57;1.05;;;1.05;;
66979;SDS011;54048;51.468;-2.572;2022-12-18T15:58:41;1.35;;;1.10;;
66979;SDS011;54048;51.468;-2.572;2022-12-18T16:01:07;3.55;;;2.67;;
66979;SDS011;54048;51.468;-2.572;2022-12-18T16:03:34;2.67;;;1.40;;
66979;SDS011;54048;51.468;-2.572;2022-12-18T16:05:59;1.58;;;1.33;;
66979;SDS011;54048;51.468;-2.572;2022-12-18T16:08:27;2.58;;;1.40;;
66979;SDS011;54048;51.468;-2.572;2022-12-18T16:10:55;2.08;;;1.88;;
66979;SDS011;54048;51.468;-2.572;2022-12-18T16:13:22;3.10;;;1.55;;
66979;SDS011;54048;51.468;-2.572;2022-12-18T16:15:47;4.30;;;1.17;;
66979;SDS011;54048;51.468;-2.572;2022-12-18T16:18:13;2.17;;;1.50;;
66979;SDS011;54048;51.468;-2.572;2022-12-18T16:20:38;3.10;;;1.73;;
66979;SDS011;54048;51.468;-2.572;2022-12-18T16:23:04;4.20;;;2.00;;
66979;SDS011;54048;51.468;-2.572;2022-12-18T16:25:29;5.28;;;1.48;;
66979;SDS011;54048;51.468;-2.572;2022-12-18T16:27:55;4.88;;;1.05;;
66979;SDS011;54048;51.468;-2.572;2022-12-18T16:30:22;4.15;;;1.70;;
66979;SDS011;54048;51.468;-2.572;2022-12-18T16:32:49;3.58;;;1.23;;
66979;SDS011;54048;51.468;-2.572;2022-12-18T16:35:15;1.40;;;1.30;;
66979;SDS011;54048;51.468;-2.572;2022-12-18T16:37:41;2.92;;;1.42;;
66979;SDS011;54048;51.468;-2.572;2022-12-18T16:40:08;2.80;;;1.60;;
66979;SDS011;54048;51.468;-2.572;2022-12-18T16:42:35;3.10;;;1.50;;
66979;SDS011;54048;51.468;-2.572;2022-12-18T16:45:02;3.13;;;1.80;;
66979;SDS011;54048;51.468;-2.572;2022-12-18T16:47:28;1.50;;;1.40;;
66979;SDS011;54048;51.468;-2.572;2022-12-18T16:49:53;5.15;;;1.65;;
66979;SDS011;54048;51.468;-2.572;2022-12-18T16:52:19;3.60;;;1.90;;
66979;SDS011;54048;51.468;-2.572;2022-12-18T16:54:45;23.08;;;17.95;;
66979;SDS011;54048;51.468;-2.572;2022-12-18T16:57:12;2.38;;;1.70;;
66979;SDS011;54048;51.468;-2.572;2022-12-18T16:59:38;3.95;;;1.80;;
66979;SDS011;54048;51.468;-2.572;2022-12-18T17:02:04;2.15;;;1.60;;
66979;SDS011;54048;51.468;-2.572;2022-12-18T17:04:30;1.45;;;1.35;;
66979;SDS011;54048;51.468;-2.572;2022-12-18T17:06:55;8.88;;;2.10;;
66979;SDS011;54048;51.468;-2.572;2022-12-18T17:09:21;5.32;;;2.15;;
66979;SDS011;54048;51.468;-2.572;2022-12-18T17:11:49;3.17;;;1.75;;
66979;SDS011;54048;51.468;-2.572;2022-12-18T17:14:16;4.13;;;2.22;;